This is the latest recevied weather packets stored in our database for station/object DJ0JJ-11. If no packets are shown the sender has not sent any weather packets the latest 1 day(s).
| Time | Temp. | Humidity | Pressure | Rain* | Wind** | Luminosity | Snow |
|---|---|---|---|---|---|---|---|
| 1778091291 | 12.22° C | 85% | 1010.6 hPa | - | - | - | - |
| 1778090391 | 12.22° C | 85% | 1010.4 hPa | - | - | - | - |
| 1778085890 | 13.33° C | 81% | 1009.7 hPa | - | - | - | - |
| 1778084990 | 13.33° C | 81% | 1009.7 hPa | - | - | - | - |
| 1778079589 | 13.89° C | 82% | 1009.6 hPa | - | - | - | - |
| 1778078689 | 14.44° C | 82% | 1009.3 hPa | - | - | - | - |
| 1778077789 | 15° C | 81% | 1009.1 hPa | - | - | - | - |
| 1778074188 | 15.56° C | 68% | 1008.9 hPa | - | - | - | - |
| 1778073288 | 16.67° C | 61% | 1008.6 hPa | - | - | - | - |
| 1778072388 | 16.67° C | 60% | 1008.4 hPa | - | - | - | - |
| 1778067887 | 17.78° C | 56% | 1008.3 hPa | - | - | - | - |
| 1778066987 | 17.78° C | 58% | 1008.4 hPa | - | - | - | - |
| 1778066087 | 17.78° C | 58% | 1008.4 hPa | - | - | - | - |
| 1778065186 | 17.22° C | 60% | 1008.4 hPa | - | - | - | - |
| 1778060685 | 16.67° C | 60% | 1008.7 hPa | - | - | - | - |
| 1778059785 | 16.11° C | 64% | 1008.7 hPa | - | - | - | - |
| 1778058885 | 15.56° C | 65% | 1008.8 hPa | - | - | - | - |
| 1778057984 | 16.11° C | 66% | 1008.7 hPa | - | - | - | - |
| 1778055284 | 16.11° C | 64% | 1008.6 hPa | - | - | - | - |
| 1778054384 | 16.11° C | 67% | 1008.6 hPa | - | - | - | - |
| 1778053484 | 15.56° C | 68% | 1008.5 hPa | - | - | - | - |
| 1778052584 | 15.56° C | 70% | 1008.3 hPa | - | - | - | - |
| 1778048983 | 14.44° C | 73% | 1008.4 hPa | - | - | - | - |
| 1778048083 | 13.33° C | 76% | 1008.6 hPa | - | - | - | - |
| 1778047183 | 12.78° C | 78% | 1008.6 hPa | - | - | - | - |
* Rain since midnight (hover to see other rain measurements)
** Current wind speed in m/s (hover to see current wind gust speed)